Time;durP1;ratioP1;P1;durP2;ratioP2;P2;SDS_P1;SDS_P2;PMS_P1;PMS_P2;Temp;Humidity;BMP_temperature;BMP_pressure;BME280_temperature;BME280_humidity;BME280_pressure;Samples;Min_cycle;Max_cycle;Signal;HPM_P1;HPM_P2
2023/07/17 00:00:05;;;;;;;0.50;0.20;;;;;;;17.21;94.20;100331.19;5073511;28;20442;-48
2023/07/17 00:02:32;;;;;;;0.50;0.20;;;;;;;17.10;94.91;100328.22;5073443;28;20450;-49
2023/07/17 00:04:58;;;;;;;0.50;0.20;;;;;;;17.01;94.79;100328.75;5073664;28;20453;-49
2023/07/17 00:07:25;;;;;;;0.50;0.20;;;;;;;16.87;95.49;100334.84;5073456;28;20974;-49
2023/07/17 00:09:52;;;;;;;0.50;0.20;;;;;;;16.81;95.02;100337.84;5073359;28;20450;-49
2023/07/17 00:12:19;;;;;;;0.50;0.20;;;;;;;16.87;95.37;100338.41;5073467;28;20970;-48
2023/07/17 00:14:45;;;;;;;0.50;0.20;;;;;;;16.80;95.36;100337.00;5073032;28;20521;-49
2023/07/17 00:17:12;;;;;;;0.50;0.20;;;;;;;16.76;95.87;100330.06;5073573;28;20441;-49
2023/07/17 00:19:39;;;;;;;0.50;0.20;;;;;;;16.71;95.84;100326.72;5073198;28;20500;-49
2023/07/17 00:22:07;;;;;;;0.50;0.20;;;;;;;16.71;96.04;100334.78;5073405;28;20811;-49
2023/07/17 00:24:34;;;;;;;0.50;0.20;;;;;;;16.66;96.52;100335.97;5073029;28;20478;-49
2023/07/17 00:27:01;;;;;;;0.50;0.20;;;;;;;16.63;96.49;100330.75;5073173;28;20446;-49
2023/07/17 00:29:28;;;;;;;0.50;0.20;;;;;;;16.47;97.11;100325.34;5072802;28;20846;-48
2023/07/17 00:31:55;;;;;;;0.50;0.20;;;;;;;16.42;97.86;100322.88;5073297;28;20819;-49
2023/07/17 00:34:22;;;;;;;0.50;0.20;;;;;;;16.38;98.16;100320.44;5073062;28;20573;-49
2023/07/17 00:36:49;;;;;;;0.50;0.20;;;;;;;16.53;97.38;100320.50;5072865;28;20480;-48
2023/07/17 00:39:15;;;;;;;0.50;0.20;;;;;;;16.93;96.36;100328.28;5072460;28;20568;-49
2023/07/17 00:41:42;;;;;;;0.50;0.20;;;;;;;16.79;96.96;100327.19;5062253;28;20550;-50
2023/07/17 00:44:09;;;;;;;0.50;0.20;;;;;;;16.96;96.54;100336.16;5056756;28;20473;-49
2023/07/17 00:46:36;;;;;;;0.50;0.20;;;;;;;16.97;96.24;100329.84;5072762;28;20876;-48
2023/07/17 00:49:05;;;;;;;0.50;0.20;;;;;;;16.99;95.75;100325.25;5072713;28;20470;-49
2023/07/17 00:51:32;;;;;;;0.50;0.20;;;;;;;17.04;95.54;100331.25;5072664;28;20503;-49
2023/07/17 00:54:00;;;;;;;0.50;0.20;;;;;;;16.87;95.97;100330.34;5072586;28;20450;-49
2023/07/17 00:56:30;;;;;;;0.50;0.20;;;;;;;16.94;96.46;100336.25;5072207;28;21018;-48
2023/07/17 00:58:57;;;;;;;0.50;0.20;;;;;;;17.43;94.92;100334.41;5072686;28;20523;-49
2023/07/17 01:01:25;;;;;;;0.50;0.20;;;;;;;17.00;95.74;100332.38;5072562;28;20454;-48
2023/07/17 01:03:55;;;;;;;0.50;0.20;;;;;;;16.85;96.68;100336.72;5072528;28;20450;-49
2023/07/17 01:06:25;;;;;;;0.50;0.20;;;;;;;16.70;97.02;100334.88;5072571;28;20492;-48
2023/07/17 01:08:52;;;;;;;0.50;0.20;;;;;;;16.64;97.36;100337.84;5072203;28;21030;-48
2023/07/17 01:11:19;;;;;;;0.50;0.20;;;;;;;16.35;97.72;100337.56;5072582;28;20880;-48
2023/07/17 01:13:46;;;;;;;0.50;0.20;;;;;;;16.21;97.92;100334.72;5058897;28;20931;-50
2023/07/17 01:16:13;;;;;;;0.50;0.20;;;;;;;16.23;97.96;100335.50;5072319;28;20499;-48
2023/07/17 01:18:40;;;;;;;0.50;0.20;;;;;;;16.27;97.85;100340.63;5072302;28;20472;-49
2023/07/17 01:21:11;;;;;;;0.50;0.20;;;;;;;16.10;98.16;100339.75;5072283;28;20454;-50
2023/07/17 01:23:38;;;;;;;0.50;0.20;;;;;;;16.08;98.43;100338.97;5072124;28;20446;-50
2023/07/17 01:26:15;;;;;;;0.50;0.20;;;;;;;16.41;97.35;100347.97;5072072;28;20528;-49
2023/07/17 01:28:43;;;;;;;0.50;0.20;;;;;;;16.27;97.32;100355.84;5072347;28;20481;-49
2023/07/17 01:31:10;;;;;;;0.50;0.20;;;;;;;16.02;98.52;100345.50;5072202;28;20474;-48
2023/07/17 01:33:37;;;;;;;0.50;0.20;;;;;;;16.00;98.96;100350.06;5072108;28;21038;-50
2023/07/17 01:36:05;;;;;;;0.50;0.20;;;;;;;16.00;98.66;100350.06;5071908;28;20980;-48
2023/07/17 01:38:33;;;;;;;0.50;0.20;;;;;;;15.87;97.69;100348.94;5072164;28;20497;-48
2023/07/17 01:41:00;;;;;;;0.50;0.20;;;;;;;15.65;98.54;100352.69;5067173;28;20825;-49
2023/07/17 01:43:27;;;;;;;0.50;0.20;;;;;;;15.62;98.45;100352.84;5052173;28;20454;-48
2023/07/17 01:45:53;;;;;;;0.50;0.20;;;;;;;15.61;98.74;100356.44;5070118;28;20677;-49
2023/07/17 01:48:20;;;;;;;0.50;0.20;;;;;;;15.70;98.24;100353.31;5072065;28;20548;-49
2023/07/17 01:50:47;;;;;;;0.50;0.20;;;;;;;15.51;98.33;100352.44;5071769;28;20499;-49
2023/07/17 01:53:18;;;;;;;0.50;0.20;;;;;;;15.42;98.96;100358.25;5072153;28;20461;-49
2023/07/17 01:55:46;;;;;;;0.50;0.20;;;;;;;15.48;98.96;100349.91;5071882;28;20525;-49
2023/07/17 01:58:12;;;;;;;0.50;0.20;;;;;;;15.34;99.00;100361.25;5072011;28;20524;-48
2023/07/17 02:00:39;;;;;;;0.50;0.20;;;;;;;15.54;98.45;100359.47;5071797;28;21011;-48
2023/07/17 02:03:05;;;;;;;0.50;0.20;;;;;;;15.36;98.81;100363.91;5071821;28;20464;-49
2023/07/17 02:05:32;;;;;;;0.50;0.20;;;;;;;15.43;97.78;100357.28;5071986;28;20520;-49
2023/07/17 02:07:58;;;;;;;0.50;0.20;;;;;;;15.34;97.98;100355.91;5071996;28;20907;-49
2023/07/17 02:10:25;;;;;;;0.50;0.20;;;;;;;15.21;98.45;100356.56;5075709;28;20449;-48
2023/07/17 02:12:51;;;;;;;0.50;0.40;;;;;;;15.15;98.72;100354.19;5075666;28;20449;-49
2023/07/17 02:15:18;;;;;;;0.50;0.20;;;;;;;14.88;98.99;100358.97;5075459;28;20528;-49
2023/07/17 02:17:45;;;;;;;0.50;0.20;;;;;;;14.93;99.58;100357.81;5075328;28;20449;-49
2023/07/17 02:20:13;;;;;;;0.50;0.20;;;;;;;14.84;99.72;100360.94;5075863;28;20450;-48
2023/07/17 02:22:41;;;;;;;0.50;0.20;;;;;;;14.84;99.52;100362.75;5075588;28;20446;-48
2023/07/17 02:25:08;;;;;;;0.50;0.20;;;;;;;14.88;98.94;100361.66;5075350;28;21006;-48
2023/07/17 02:27:35;;;;;;;0.50;0.20;;;;;;;14.79;99.82;100363.78;5075351;28;20461;-49
2023/07/17 02:30:03;;;;;;;0.50;0.20;;;;;;;14.71;100.00;100365.09;5075395;28;20888;-49
2023/07/17 02:32:30;;;;;;;0.50;0.20;;;;;;;14.67;100.00;100371.53;5075399;28;20453;-48
2023/07/17 02:34:57;;;;;;;0.50;0.20;;;;;;;14.74;100.00;100364.94;5075443;28;20536;-49
2023/07/17 02:37:23;;;;;;;0.50;0.20;;;;;;;14.73;99.94;100376.59;5075357;28;20485;-48
2023/07/17 02:39:51;;;;;;;0.50;0.20;;;;;;;14.55;100.00;100378.28;5075373;28;20465;-51
2023/07/17 02:42:17;;;;;;;0.50;0.20;;;;;;;14.60;100.00;100378.06;5059576;28;20458;-51
2023/07/17 02:44:46;;;;;;;0.50;0.20;;;;;;;14.67;100.00;100377.75;5063830;28;20457;-51
2023/07/17 02:47:14;;;;;;;0.50;0.20;;;;;;;14.76;99.86;100379.13;5075077;28;20503;-51
2023/07/17 02:49:41;;;;;;;0.47;0.20;;;;;;;14.43;100.00;100381.44;5074956;28;20474;-51
2023/07/17 02:52:09;;;;;;;0.50;0.20;;;;;;;14.59;100.00;100384.34;5074887;28;20496;-51
2023/07/17 02:54:37;;;;;;;0.50;0.20;;;;;;;14.52;100.00;100383.75;5074935;28;20508;-52
2023/07/17 02:57:04;;;;;;;0.50;0.20;;;;;;;14.44;100.00;100384.09;5074676;28;20512;-53
2023/07/17 02:59:31;;;;;;;0.50;0.20;;;;;;;14.40;100.00;100379.78;5074656;28;20866;-52
2023/07/17 03:01:58;;;;;;;0.40;0.20;;;;;;;14.32;100.00;100391.72;5074795;28;20533;-52
2023/07/17 03:04:25;;;;;;;0.40;0.20;;;;;;;14.23;100.00;100392.97;5074894;28;20528;-52
2023/07/17 03:06:52;;;;;;;0.50;0.20;;;;;;;14.33;100.00;100390.78;5074632;28;20496;-52
2023/07/17 03:09:18;;;;;;;0.50;0.20;;;;;;;14.21;100.00;100394.84;5074286;28;20841;-52
2023/07/17 03:11:45;;;;;;;0.47;0.20;;;;;;;14.37;100.00;100392.38;5074397;28;20950;-52
2023/07/17 03:14:11;;;;;;;0.50;0.20;;;;;;;14.30;100.00;100404.28;5074423;28;20450;-52
2023/07/17 03:16:37;;;;;;;0.50;0.20;;;;;;;14.31;100.00;100403.34;5074441;28;20489;-52
2023/07/17 03:19:04;;;;;;;0.50;0.20;;;;;;;14.30;100.00;100407.84;5074321;28;20474;-52
2023/07/17 03:21:31;;;;;;;0.50;0.20;;;;;;;14.17;100.00;100406.59;5074203;28;20511;-52
2023/07/17 03:24:00;;;;;;;0.40;0.20;;;;;;;14.24;100.00;100422.31;5074458;28;20469;-52
2023/07/17 03:26:26;;;;;;;0.50;0.20;;;;;;;14.21;100.00;100414.44;5074172;28;20457;-52
2023/07/17 03:28:53;;;;;;;0.50;0.20;;;;;;;14.14;100.00;100409.41;5074642;28;20469;-52
2023/07/17 03:31:19;;;;;;;0.50;0.20;;;;;;;14.14;100.00;100406.75;5074335;28;20446;-52
2023/07/17 03:33:46;;;;;;;2.97;2.77;;;;;;;14.05;100.00;100409.78;5074173;28;20484;-52
2023/07/17 03:36:13;;;;;;;0.50;0.20;;;;;;;13.97;100.00;100412.75;5074052;28;21036;-52
2023/07/17 03:38:40;;;;;;;0.47;0.20;;;;;;;13.93;100.00;100409.34;5072427;28;20857;-52
2023/07/17 03:41:07;;;;;;;0.50;0.20;;;;;;;13.89;100.00;100410.41;5067929;28;20474;-51
2023/07/17 03:43:33;;;;;;;0.40;0.20;;;;;;;13.81;100.00;100415.19;5054097;28;21077;-52
2023/07/17 03:46:00;;;;;;;0.40;0.20;;;;;;;13.83;100.00;100413.31;5073691;28;20541;-52
2023/07/17 03:48:26;;;;;;;0.50;0.20;;;;;;;13.84;100.00;100414.19;5073892;28;20508;-51
2023/07/17 03:50:53;;;;;;;0.50;0.20;;;;;;;13.84;100.00;100416.84;5073983;28;20896;-52
2023/07/17 03:53:19;;;;;;;0.50;0.20;;;;;;;13.91;100.00;100411.22;5073662;28;20453;-52
2023/07/17 03:55:46;;;;;;;0.40;0.20;;;;;;;13.80;100.00;100417.91;5073539;28;20493;-52
2023/07/17 03:58:12;;;;;;;0.40;0.20;;;;;;;13.85;100.00;100422.16;5073750;28;20500;-52
2023/07/17 04:00:39;;;;;;;0.40;0.20;;;;;;;13.92;100.00;100417.44;5073400;28;20951;-52
2023/07/17 04:03:05;;;;;;;0.40;0.20;;;;;;;14.00;100.00;100423.34;5073507;28;20492;-52
2023/07/17 04:05:32;;;;;;;0.40;0.20;;;;;;;14.04;100.00;100424.94;5073263;28;20442;-52
2023/07/17 04:08:01;;;;;;;0.40;0.20;;;;;;;14.21;100.00;100427.81;5073213;28;20502;-51
2023/07/17 04:10:28;;;;;;;0.40;0.20;;;;;;;14.37;100.00;100427.16;5073172;28;20537;-52
2023/07/17 04:12:55;;;;;;;0.40;0.20;;;;;;;14.34;100.00;100438.84;5073388;28;20445;-52
2023/07/17 04:15:22;;;;;;;0.40;0.30;;;;;;;14.25;100.00;100436.56;5073172;28;20536;-52
2023/07/17 04:17:48;;;;;;;0.50;0.20;;;;;;;14.25;100.00;100439.22;5072969;28;20561;-51
2023/07/17 04:20:16;;;;;;;0.40;0.20;;;;;;;14.40;100.00;100441.28;5073312;28;20473;-52
2023/07/17 04:22:42;;;;;;;0.40;0.20;;;;;;;14.57;100.00;100439.75;5073091;28;20488;-52
2023/07/17 04:25:09;;;;;;;0.40;0.20;;;;;;;14.50;100.00;100431.09;5070719;28;21043;-52
2023/07/17 04:27:36;;;;;;;0.40;0.20;;;;;;;14.65;100.00;100440.25;5069001;28;20958;-52
2023/07/17 04:30:03;;;;;;;0.40;0.20;;;;;;;14.78;100.00;100436.13;5073014;28;20449;-52
2023/07/17 04:32:29;;;;;;;0.40;0.20;;;;;;;14.85;100.00;100440.28;5072457;28;20504;-52
2023/07/17 04:34:56;;;;;;;0.40;0.20;;;;;;;14.88;100.00;100444.63;5072946;28;20476;-52
2023/07/17 04:37:23;;;;;;;0.40;0.20;;;;;;;14.95;100.00;100454.16;5072685;28;20580;-52
2023/07/17 04:39:50;;;;;;;0.40;0.20;;;;;;;14.99;100.00;100450.38;5072515;28;20501;-52
2023/07/17 04:42:16;;;;;;;0.50;0.20;;;;;;;15.32;100.00;100453.34;5057300;28;20534;-52
2023/07/17 04:44:46;;;;;;;0.40;0.20;;;;;;;15.93;98.75;100442.50;5061355;28;21010;-53
2023/07/17 04:47:12;;;;;;;0.40;0.20;;;;;;;16.61;96.74;100456.13;5071609;28;20948;-53
2023/07/17 04:49:39;;;;;;;0.40;0.20;;;;;;;17.14;93.93;100456.94;5072532;28;20474;-53
2023/07/17 04:52:06;;;;;;;0.50;0.40;;;;;;;17.63;92.34;100459.63;5072663;28;20454;-53
2023/07/17 04:54:33;;;;;;;0.50;0.20;;;;;;;17.99;90.32;100462.13;5072697;28;20445;-52
2023/07/17 04:56:59;;;;;;;0.50;0.20;;;;;;;18.37;88.61;100460.91;5072518;28;21010;-53
2023/07/17 04:59:26;;;;;;;0.50;0.20;;;;;;;18.62;88.20;100474.66;5072391;28;20470;-53
2023/07/17 05:01:52;;;;;;;0.50;0.20;;;;;;;18.74;87.26;100473.09;5072211;28;20541;-52
2023/07/17 05:04:19;;;;;;;0.50;0.20;;;;;;;18.41;88.75;100471.41;5072427;28;20962;-52
2023/07/17 05:06:46;;;;;;;0.50;0.27;;;;;;;18.80;87.05;100480.81;5072462;28;20528;-53
2023/07/17 05:09:13;;;;;;;0.50;0.20;;;;;;;19.11;85.75;100472.63;5072483;28;20561;-52
2023/07/17 05:11:41;;;;;;;0.50;0.20;;;;;;;19.29;85.98;100477.84;5072190;28;20449;-52
2023/07/17 05:14:08;;;;;;;0.50;0.20;;;;;;;19.64;85.33;100473.84;5072284;28;20529;-53
2023/07/17 05:16:35;;;;;;;0.50;0.20;;;;;;;19.94;84.48;100472.84;5072271;28;20488;-52
2023/07/17 05:19:01;;;;;;;0.50;0.20;;;;;;;20.15;83.47;100481.38;5072125;28;20470;-53
2023/07/17 05:21:28;;;;;;;0.50;0.20;;;;;;;19.91;82.94;100476.63;5072126;28;20446;-53
2023/07/17 05:23:54;;;;;;;0.50;0.20;;;;;;;20.39;82.24;100472.53;5072093;28;20492;-53
2023/07/17 05:26:21;;;;;;;0.50;0.20;;;;;;;20.35;82.81;100475.56;5071953;28;20477;-52
2023/07/17 05:28:49;;;;;;;0.50;0.20;;;;;;;20.95;79.67;100481.38;5072123;28;20560;-52
2023/07/17 05:31:15;;;;;;;0.50;0.20;;;;;;;21.05;77.38;100480.75;5072201;28;20529;-52
2023/07/17 05:33:43;;;;;;;0.50;0.20;;;;;;;20.22;78.93;100469.22;5072136;28;20457;-52
2023/07/17 05:36:09;;;;;;;0.50;0.30;;;;;;;20.16;80.82;100469.63;5072192;28;20572;-52
2023/07/17 05:38:37;;;;;;;0.50;0.20;;;;;;;20.31;80.76;100466.78;5072042;28;20484;-52
2023/07/17 05:41:04;;;;;;;0.50;0.20;;;;;;;20.84;79.43;100467.75;5066600;28;20894;-52
2023/07/17 05:43:31;;;;;;;0.50;0.20;;;;;;;21.29;78.14;100479.09;5052866;28;20477;-52
2023/07/17 05:45:58;;;;;;;0.50;0.20;;;;;;;21.48;77.78;100490.34;5075399;28;20461;-51
2023/07/17 05:48:25;;;;;;;0.50;0.30;;;;;;;22.31;73.80;100495.19;5076337;28;20469;-53
2023/07/17 05:50:51;;;;;;;0.60;0.60;;;;;;;22.40;73.22;100497.25;5076162;28;20539;-52
2023/07/17 05:53:18;;;;;;;0.50;0.30;;;;;;;22.76;72.39;100499.03;5076564;28;20450;-52
2023/07/17 05:55:44;;;;;;;0.50;0.20;;;;;;;23.15;71.39;100491.53;5075930;28;20537;-51
2023/07/17 05:58:11;;;;;;;0.50;0.20;;;;;;;22.71;72.64;100490.38;5076080;28;20505;-52
2023/07/17 06:00:37;;;;;;;0.50;0.20;;;;;;;22.95;71.35;100493.97;5075852;28;20540;-52
2023/07/17 06:03:04;;;;;;;0.50;0.20;;;;;;;22.51;72.94;100493.72;5076135;28;20450;-52
2023/07/17 06:05:35;;;;;;;0.50;0.23;;;;;;;22.48;73.49;100502.97;5075939;28;20416;-52
2023/07/17 06:08:01;;;;;;;0.50;0.20;;;;;;;22.32;74.42;100511.34;5075675;28;20961;-51
2023/07/17 06:10:29;;;;;;;0.50;0.20;;;;;;;21.72;75.85;100493.16;5075859;28;20883;-50
2023/07/17 06:12:56;;;;;;;0.50;0.23;;;;;;;21.66;76.92;100493.59;5075652;28;20480;-52
2023/07/17 06:15:22;;;;;;;0.50;0.20;;;;;;;21.82;76.14;100491.50;5075572;28;20469;-52
2023/07/17 06:17:49;;;;;;;0.50;0.30;;;;;;;21.68;76.79;100497.06;5075494;28;20576;-52
2023/07/17 06:20:16;;;;;;;0.50;0.20;;;;;;;22.01;75.79;100499.16;5075680;28;20435;-52
2023/07/17 06:22:42;;;;;;;0.50;0.23;;;;;;;22.21;75.04;100495.03;5075510;28;20544;-52
2023/07/17 06:25:09;;;;;;;0.50;0.20;;;;;;;22.43;73.90;100497.00;5074173;28;20453;-52
2023/07/17 06:27:35;;;;;;;0.50;0.30;;;;;;;22.83;73.83;100503.03;5075117;28;20441;-52
2023/07/17 06:30:02;;;;;;;0.50;0.20;;;;;;;23.00;72.33;100505.31;5075416;28;20478;-52
2023/07/17 06:32:29;;;;;;;0.50;0.20;;;;;;;23.83;70.38;100510.53;5075419;28;20481;-52
2023/07/17 06:34:55;;;;;;;0.50;0.30;;;;;;;23.72;69.70;100505.13;5075360;28;20456;-51
2023/07/17 06:37:22;;;;;;;0.50;0.30;;;;;;;23.87;68.64;100503.03;5075125;28;20572;-52
2023/07/17 06:39:49;;;;;;;0.50;0.30;;;;;;;23.56;69.38;100512.72;5074733;28;20566;-52
2023/07/17 06:42:15;;;;;;;0.50;0.30;;;;;;;23.90;67.98;100510.94;5059489;28;20537;-51
2023/07/17 06:44:42;;;;;;;0.50;0.27;;;;;;;23.21;69.87;100508.22;5064171;28;20458;-51
2023/07/17 06:47:08;;;;;;;0.50;0.20;;;;;;;23.41;69.54;100513.94;5074805;28;20417;-52
2023/07/17 06:49:50;;;;;;;0.50;0.20;;;;;;;23.39;69.89;100507.75;5075043;28;20458;-53
2023/07/17 06:52:17;;;;;;;0.50;0.23;;;;;;;23.47;68.87;100506.19;5075366;28;20545;-52
2023/07/17 06:54:43;;;;;;;0.50;0.20;;;;;;;23.69;68.65;100513.50;5074266;28;21019;-52
2023/07/17 06:57:28;;;;;;;0.50;0.20;;;;;;;23.93;66.23;100518.81;5054894;28;20501;-52
2023/07/17 06:59:54;;;;;;;0.50;0.20;;;;;;;24.05;64.74;100519.69;5068773;28;21031;-52
2023/07/17 07:02:21;;;;;;;0.50;0.20;;;;;;;24.02;63.96;100517.22;5074886;28;20445;-52
2023/07/17 07:04:47;;;;;;;0.50;0.20;;;;;;;24.13;63.72;100522.66;5074661;28;20446;-51
2023/07/17 07:07:14;;;;;;;0.67;0.67;;;;;;;24.31;62.81;100528.47;5074537;28;20815;-51
2023/07/17 07:09:44;;;;;;;0.50;0.20;;;;;;;24.47;58.32;100520.78;5074647;28;20470;-52
2023/07/17 07:12:10;;;;;;;0.50;0.30;;;;;;;24.83;58.64;100513.25;5074946;28;20460;-52
2023/07/17 07:14:37;;;;;;;0.50;0.20;;;;;;;24.17;58.61;100513.25;5074630;28;20448;-53
2023/07/17 07:17:03;;;;;;;0.50;0.30;;;;;;;24.30;58.46;100518.59;5074469;28;20485;-52
2023/07/17 07:19:30;;;;;;;0.50;0.40;;;;;;;24.55;57.22;100510.13;5074307;28;20556;-52
2023/07/17 07:21:56;;;;;;;0.50;0.23;;;;;;;24.75;56.59;100517.47;5074371;28;20503;-51
2023/07/17 07:24:23;;;;;;;0.50;0.20;;;;;;;24.80;55.60;100519.78;5074414;28;20525;-51
2023/07/17 07:26:49;;;;;;;0.50;0.30;;;;;;;24.48;55.56;100527.94;5074324;28;20950;-52
2023/07/17 07:29:17;;;;;;;0.50;0.30;;;;;;;24.13;56.84;100528.97;5074248;28;20498;-52
2023/07/17 07:31:43;;;;;;;0.50;0.33;;;;;;;24.40;56.54;100534.03;5074355;28;20873;-52
2023/07/17 07:34:10;;;;;;;0.50;0.27;;;;;;;24.50;56.33;100532.25;5074136;28;20459;-52
2023/07/17 07:36:36;;;;;;;0.50;0.20;;;;;;;24.81;56.61;100529.72;5074008;28;20528;-52
2023/07/17 07:39:05;;;;;;;0.50;0.30;;;;;;;24.48;55.83;100519.78;5073971;28;20478;-52
2023/07/17 07:41:35;;;;;;;0.50;0.20;;;;;;;24.83;57.16;100533.16;5064777;28;20462;-52
2023/07/17 07:44:02;;;;;;;0.50;0.30;;;;;;;25.10;54.32;100533.56;5057362;28;20424;-52
2023/07/17 07:46:29;;;;;;;0.50;0.30;;;;;;;25.35;53.13;100540.47;5073969;28;20503;-51
2023/07/17 07:48:55;;;;;;;0.50;0.20;;;;;;;24.74;53.58;100540.22;5073597;28;20995;-51
2023/07/17 07:51:22;;;;;;;0.50;0.20;;;;;;;25.01;53.14;100545.22;5074013;28;20446;-51
2023/07/17 07:53:48;;;;;;;0.50;0.30;;;;;;;25.09;53.13;100548.19;5073791;28;20428;-52
2023/07/17 07:56:15;;;;;;;0.50;0.27;;;;;;;25.24;51.25;100542.41;5073745;28;20863;-53
2023/07/17 07:58:42;;;;;;;0.50;0.30;;;;;;;24.81;53.47;100541.44;5073666;28;20473;-53
2023/07/17 08:01:09;;;;;;;0.50;0.23;;;;;;;25.27;52.73;100540.28;5073821;28;20856;-52
2023/07/17 08:03:36;;;;;;;0.50;0.27;;;;;;;25.66;50.35;100543.28;5073464;28;20454;-53
2023/07/17 08:06:02;;;;;;;0.50;0.40;;;;;;;25.36;50.64;100541.38;5072867;28;20948;-52
2023/07/17 08:08:29;;;;;;;0.50;0.30;;;;;;;25.25;49.75;100541.41;5073218;28;20985;-51
2023/07/17 08:10:56;;;;;;;0.50;0.30;;;;;;;25.31;49.04;100546.31;5073611;28;20485;-53
2023/07/17 08:13:22;;;;;;;0.50;0.30;;;;;;;25.66;50.15;100543.28;5073518;28;20547;-53
2023/07/17 08:15:49;;;;;;;0.50;0.27;;;;;;;25.64;49.53;100545.28;5073403;28;20477;-52
2023/07/17 08:18:16;;;;;;;0.50;0.30;;;;;;;25.84;48.62;100538.94;5072917;28;20526;-52
2023/07/17 08:20:43;;;;;;;0.50;0.30;;;;;;;26.20;48.92;100543.00;5073167;28;20922;-52
2023/07/17 08:23:10;;;;;;;0.50;0.30;;;;;;;26.42;48.41;100546.53;5073123;28;20953;-53
2023/07/17 08:25:37;;;;;;;0.50;0.20;;;;;;;26.17;47.61;100545.09;5073093;28;20446;-52
2023/07/17 08:28:03;;;;;;;0.50;0.30;;;;;;;26.14;47.88;100543.53;5073007;28;20463;-52
2023/07/17 08:30:30;;;;;;;0.50;0.30;;;;;;;26.37;47.00;100548.81;5072927;28;20948;-51
2023/07/17 08:32:56;;;;;;;0.50;0.20;;;;;;;26.09;48.03;100542.22;5073098;28;20454;-52
2023/07/17 08:35:23;;;;;;;1.07;0.90;;;;;;;26.77;47.04;100543.31;5073214;28;20453;-52
2023/07/17 08:37:49;;;;;;;0.50;0.30;;;;;;;26.04;48.11;100542.66;5073263;28;20980;-50
2023/07/17 08:40:16;;;;;;;0.50;0.30;;;;;;;26.10;47.83;100543.94;5060584;28;20454;-49
2023/07/17 08:42:46;;;;;;;0.50;0.30;;;;;;;26.62;47.83;100536.53;5066294;28;20483;-50
2023/07/17 08:45:14;;;;;;;0.50;0.27;;;;;;;26.40;48.01;100546.66;5064071;28;20820;-50
2023/07/17 08:47:41;;;;;;;0.50;0.27;;;;;;;26.58;46.25;100553.16;5059567;28;20448;-49
2023/07/17 08:50:11;;;;;;;0.50;0.30;;;;;;;26.88;44.79;100551.38;5072748;28;20453;-50
2023/07/17 08:52:38;;;;;;;0.50;0.30;;;;;;;26.91;46.26;100545.63;5072765;28;20445;-50
2023/07/17 08:55:05;;;;;;;0.50;0.30;;;;;;;26.25;46.65;100542.56;5072370;28;20950;-50
2023/07/17 08:57:34;;;;;;;0.50;0.30;;;;;;;26.19;46.65;100540.41;5072394;28;20482;-50
2023/07/17 09:00:01;;;;;;;0.50;0.23;;;;;;;25.67;46.84;100542.28;5072718;28;20499;-50
2023/07/17 09:02:28;;;;;;;0.50;0.20;;;;;;;26.26;46.08;100536.09;5072449;28;20949;-49
2023/07/17 09:04:54;;;;;;;0.50;0.23;;;;;;;26.48;45.11;100524.16;5072595;28;20464;-50
2023/07/17 09:07:21;;;;;;;0.50;0.30;;;;;;;27.02;44.06;100528.28;5072473;28;20450;-50
2023/07/17 09:10:20;;;;;;;0.50;0.23;;;;;;;26.71;43.23;100528.34;5072171;28;20548;-50
2023/07/17 09:12:53;;;;;;;0.50;0.20;;;;;;;26.54;44.43;100529.03;5072525;28;20830;-49
2023/07/17 09:15:20;;;;;;;0.50;0.30;;;;;;;26.93;43.38;100516.31;5059935;28;20424;-50
2023/07/17 09:17:47;;;;;;;0.50;0.20;;;;;;;27.07;42.96;100523.25;5071804;28;20998;-50
2023/07/17 09:20:16;;;;;;;0.50;0.30;;;;;;;27.41;42.51;100518.16;5072434;28;20454;-49
2023/07/17 09:22:43;;;;;;;0.50;0.30;;;;;;;27.25;42.98;100520.63;5072181;28;20571;-50
2023/07/17 09:25:11;;;;;;;0.50;0.30;;;;;;;27.51;41.83;100518.16;5064416;28;20423;-50
2023/07/17 09:27:47;;;;;;;0.50;0.30;;;;;;;27.55;39.98;100514.09;5067642;28;20813;-50
2023/07/17 09:30:22;;;;;;;0.50;0.30;;;;;;;27.59;40.38;100515.56;5072445;28;20416;-50
2023/07/17 09:32:49;;;;;;;0.50;0.27;;;;;;;27.18;38.81;100514.91;5072426;28;20477;-50
2023/07/17 09:35:23;;;;;;;0.50;0.30;;;;;;;27.39;40.37;100521.03;5072393;28;20424;-49
2023/07/17 09:37:50;;;;;;;0.50;0.27;;;;;;;27.99;39.63;100521.63;5072062;28;20478;-49
2023/07/17 09:40:18;;;;;;;3.23;2.73;;;;;;;27.85;39.80;100518.53;5062402;28;20506;-50
2023/07/17 09:42:52;;;;;;;0.50;0.30;;;;;;;27.36;41.08;100517.75;5065726;28;20451;-50
2023/07/17 09:45:19;;;;;;;0.50;0.30;;;;;;;27.40;41.55;100530.09;5065378;28;20427;-50
2023/07/17 09:47:49;;;;;;;0.50;0.20;;;;;;;26.97;41.16;100525.94;5058984;28;20850;-49
2023/07/17 09:50:18;;;;;;;0.50;0.20;;;;;;;26.74;41.54;100533.53;5072400;28;20478;-49
2023/07/17 09:52:45;;;;;;;0.50;0.20;;;;;;;26.47;43.06;100534.22;5072093;28;20424;-50
2023/07/17 09:55:13;;;;;;;0.50;0.30;;;;;;;26.33;43.37;100525.53;5071985;28;20463;-50
2023/07/17 09:57:42;;;;;;;0.50;0.30;;;;;;;26.24;44.76;100522.63;5071927;28;20471;-50
2023/07/17 10:00:13;;;;;;;0.50;0.20;;;;;;;26.38;44.75;100526.00;5071703;28;20493;-49
2023/07/17 10:02:47;;;;;;;0.50;0.30;;;;;;;26.53;43.37;100521.88;5071821;28;20914;-50
2023/07/17 10:05:14;;;;;;;0.50;0.30;;;;;;;26.60;42.86;100530.38;5071979;28;20907;-50
2023/07/17 10:07:45;;;;;;;0.50;0.30;;;;;;;27.25;41.96;100528.81;5061055;28;20529;-50
2023/07/17 10:10:12;;;;;;;0.50;0.20;;;;;;;27.45;41.16;100534.13;5056478;28;20828;-49
2023/07/17 10:12:41;;;;;;;0.50;0.30;;;;;;;27.33;41.11;100542.63;5071730;28;20432;-50
2023/07/17 10:15:09;;;;;;;0.50;0.30;;;;;;;27.16;40.66;100533.31;5071757;28;20921;-50
2023/07/17 10:17:36;;;;;;;0.50;0.23;;;;;;;26.82;39.95;100541.84;5071864;28;21036;-50
2023/07/17 10:20:07;;;;;;;0.50;0.20;;;;;;;26.35;41.65;100534.44;5071881;28;20963;-50
2023/07/17 10:22:34;;;;;;;0.50;0.30;;;;;;;26.62;41.69;100537.41;5071982;28;20842;-50
2023/07/17 10:25:17;;;;;;;0.50;0.30;;;;;;;27.26;41.34;100531.41;5064750;28;20436;-50
2023/07/17 10:27:46;;;;;;;0.50;0.30;;;;;;;27.68;41.03;100531.06;5071925;28;20632;-50
2023/07/17 10:30:29;;;;;;;0.50;0.20;;;;;;;27.34;40.84;100525.22;5073838;28;20424;-49
2023/07/17 10:33:03;;;;;;;0.50;0.30;;;;;;;27.34;41.29;100527.97;5075582;28;20456;-49
2023/07/17 10:35:44;;;;;;;0.50;0.30;;;;;;;27.71;40.38;100523.47;5074177;28;20525;-50
2023/07/17 10:38:12;;;;;;;0.50;0.30;;;;;;;27.69;39.82;100521.91;5063757;28;20494;-50
2023/07/17 10:40:39;;;;;;;0.50;0.30;;;;;;;28.22;38.72;100519.34;5072984;28;20818;-50
2023/07/17 10:43:21;;;;;;;0.50;0.30;;;;;;;28.45;38.24;100510.78;5055101;28;20923;-50
2023/07/17 10:45:48;;;;;;;0.50;0.30;;;;;;;28.51;38.24;100513.78;5072312;28;20992;-49
2023/07/17 10:48:15;;;;;;;0.50;0.20;;;;;;;28.97;36.43;100508.28;5074829;28;20552;-50
2023/07/17 10:50:53;;;;;;;0.50;0.30;;;;;;;28.85;36.33;100508.47;5075147;28;20421;-50
2023/07/17 10:53:21;;;;;;;0.50;0.30;;;;;;;28.52;37.15;100510.03;5075090;28;20449;-49
2023/07/17 10:55:47;;;;;;;0.50;0.30;;;;;;;28.29;37.16;100497.78;5068417;28;20833;-50
2023/07/17 10:58:16;;;;;;;0.50;0.30;;;;;;;28.15;37.98;100512.78;5068042;28;20858;-50
2023/07/17 11:00:47;;;;;;;0.50;0.30;;;;;;;28.51;37.86;100499.19;5074941;28;20503;-50
2023/07/17 11:03:20;;;;;;;0.50;0.30;;;;;;;27.81;37.76;100514.34;5074849;28;20450;-51
2023/07/17 11:05:47;;;;;;;0.50;0.30;;;;;;;27.64;39.02;100514.13;5074984;28;20421;-50
2023/07/17 11:08:13;;;;;;;0.50;0.30;;;;;;;27.57;38.72;100515.72;5074617;28;20498;-50
2023/07/17 11:10:44;;;;;;;0.50;0.23;;;;;;;27.59;38.69;100510.09;5074670;28;20432;-50
2023/07/17 11:13:11;;;;;;;0.50;0.30;;;;;;;28.27;38.01;100511.59;5074449;28;20875;-50
2023/07/17 11:15:37;;;;;;;0.50;0.30;;;;;;;28.02;38.08;100513.13;5074677;28;20537;-50
2023/07/17 11:18:05;;;;;;;0.50;0.30;;;;;;;28.23;36.61;100509.28;5074189;28;21060;-50
2023/07/17 11:20:33;;;;;;;0.50;0.30;;;;;;;28.39;36.13;100509.53;5074568;28;20449;-50
2023/07/17 11:23:00;;;;;;;0.50;0.30;;;;;;;27.64;36.96;100502.34;5074591;28;20507;-50
2023/07/17 11:25:33;;;;;;;0.50;0.20;;;;;;;27.89;36.52;100500.81;5064223;28;20499;-51